createdAt,value
2018-09-18T00:03:09.732Z,95844.00
2018-09-18T00:08:39.012Z,95843.00
2018-09-18T00:14:08.474Z,95844.00
2018-09-18T00:19:37.672Z,95845.00
2018-09-18T00:25:06.941Z,95820.00
2018-09-18T00:30:36.122Z,95813.00
2018-09-18T00:36:05.449Z,95811.00
2018-09-18T00:41:34.635Z,95807.00
2018-09-18T00:47:03.943Z,95807.00
2018-09-18T00:52:33.146Z,95806.00
2018-09-18T00:58:02.314Z,95809.00
2018-09-18T01:03:31.571Z,95802.00
2018-09-18T01:09:00.782Z,95801.00
2018-09-18T01:14:29.996Z,95808.00
2018-09-18T01:19:59.196Z,95804.00
2018-09-18T01:25:28.391Z,95799.00
2018-09-18T01:30:57.676Z,95806.00
2018-09-18T01:36:26.936Z,95796.00
2018-09-18T01:41:57.192Z,95803.00
2018-09-18T01:47:26.407Z,95811.00
2018-09-18T01:52:55.755Z,95811.00
2018-09-18T01:58:24.947Z,95812.00
2018-09-18T02:03:54.294Z,95815.00
2018-09-18T02:09:24.193Z,95812.00
2018-09-18T02:14:53.551Z,95809.00
2018-09-18T02:20:22.739Z,95810.00
2018-09-18T02:25:51.952Z,95810.00
2018-09-18T02:31:21.199Z,95800.00
2018-09-18T02:36:50.439Z,95810.00
2018-09-18T02:42:20.420Z,95812.00
2018-09-18T02:47:49.625Z,95813.00
2018-09-18T02:53:18.924Z,95810.00
2018-09-18T02:58:48.212Z,95799.00
2018-09-18T03:04:17.476Z,95809.00
2018-09-18T03:09:46.690Z,95812.00
2018-09-18T03:15:15.986Z,95812.00
2018-09-18T03:20:47.001Z,95808.00
2018-09-18T03:26:17.019Z,95816.00
2018-09-18T03:31:46.403Z,95810.00
2018-09-18T03:37:15.647Z,95808.00
2018-09-18T03:42:44.976Z,95818.00
2018-09-18T03:48:14.287Z,95822.00
2018-09-18T03:53:43.599Z,95816.00
2018-09-18T03:59:12.885Z,95812.00
2018-09-18T04:04:42.114Z,95817.00
2018-09-18T04:10:11.590Z,95813.00
2018-09-18T04:15:41.580Z,95818.00
2018-09-18T04:21:10.841Z,95824.00
2018-09-18T04:26:41.294Z,95822.00
2018-09-18T04:32:10.720Z,95820.00
2018-09-18T04:37:39.965Z,95824.00
2018-09-18T04:43:09.312Z,95825.00
2018-09-18T04:48:38.770Z,95833.00
2018-09-18T04:54:08.157Z,95832.00
2018-09-18T04:59:37.523Z,95832.00
2018-09-18T05:05:07.040Z,95836.00
2018-09-18T05:10:36.907Z,95831.00
2018-09-18T05:16:06.234Z,95841.00
2018-09-18T05:21:35.651Z,95847.00
2018-09-18T05:27:04.966Z,95855.00
2018-09-18T05:32:34.193Z,95855.00
2018-09-18T05:38:03.464Z,95859.00
2018-09-18T05:43:32.692Z,95861.00
2018-09-18T05:49:01.939Z,95854.00
2018-09-18T05:54:31.174Z,95866.00
2018-09-18T06:00:00.428Z,95873.00
2018-09-18T06:05:29.669Z,95877.00
2018-09-18T06:10:58.859Z,95872.00
2018-09-18T06:16:28.080Z,95879.00
2018-09-18T06:21:57.907Z,95887.00
2018-09-18T06:27:27.103Z,95876.00
2018-09-18T06:32:56.341Z,95872.00
2018-09-18T06:38:25.516Z,95883.00
2018-09-18T06:43:54.888Z,95893.00
2018-09-18T06:49:24.082Z,95889.00
2018-09-18T06:54:53.441Z,95902.00
2018-09-18T07:00:22.711Z,95898.00
2018-09-18T07:05:52.365Z,95906.00
2018-09-18T07:11:21.612Z,95908.00
2018-09-18T07:16:50.824Z,95906.00
2018-09-18T07:22:20.103Z,95906.00
2018-09-18T07:27:49.337Z,95900.00
2018-09-18T07:33:19.618Z,95892.00
2018-09-18T07:38:48.860Z,95901.00
2018-09-18T07:44:18.083Z,95905.00
2018-09-18T07:49:47.278Z,95901.00
2018-09-18T07:55:16.603Z,95904.00
2018-09-18T08:00:45.871Z,95903.00
2018-09-18T08:06:15.150Z,95910.00
2018-09-18T08:11:44.412Z,95910.00
2018-09-18T08:17:13.728Z,95916.00
2018-09-18T08:22:43.020Z,95918.00
2018-09-18T08:28:12.258Z,95920.00
2018-09-18T08:33:41.609Z,95923.00
2018-09-18T08:39:11.009Z,95922.00
2018-09-18T08:44:40.487Z,95926.00
2018-09-18T08:50:09.756Z,95921.00
2018-09-18T08:55:39.006Z,95922.00
2018-09-18T09:01:08.340Z,95925.00
2018-09-18T09:06:37.672Z,95926.00
2018-09-18T09:12:07.024Z,95920.00
2018-09-18T09:17:36.212Z,95936.00
2018-09-18T09:23:05.539Z,95924.00
2018-09-18T09:28:35.115Z,95932.00
2018-09-18T09:34:04.330Z,95923.00
2018-09-18T09:39:33.492Z,95919.00
2018-09-18T09:45:02.774Z,95913.00
2018-09-18T09:50:31.946Z,95911.00
2018-09-18T09:56:01.179Z,95909.00
2018-09-18T10:01:35.793Z,95901.00
2018-09-18T10:07:05.068Z,95897.00
2018-09-18T10:12:34.268Z,95897.00
2018-09-18T10:18:03.529Z,95900.00
2018-09-18T10:23:33.171Z,95897.00
2018-09-18T10:29:02.417Z,95893.00
2018-09-18T10:34:31.640Z,95889.00
2018-09-18T10:40:02.873Z,95885.00
2018-09-18T10:45:32.210Z,95885.00
2018-09-18T10:51:01.439Z,95889.00
2018-09-18T10:56:30.636Z,95878.00
2018-09-18T11:01:59.838Z,95873.00
2018-09-18T11:07:29.076Z,95864.00
2018-09-18T11:12:58.313Z,95884.00
2018-09-18T11:18:27.547Z,95878.00
2018-09-18T11:23:56.866Z,95865.00
2018-09-18T11:29:26.102Z,95879.00
2018-09-18T11:34:55.301Z,95873.00
2018-09-18T11:40:24.478Z,95864.00
2018-09-18T11:45:53.869Z,95868.00
2018-09-18T11:51:22.954Z,95863.00
2018-09-18T11:56:52.383Z,95857.00
2018-09-18T12:02:21.503Z,95861.00
2018-09-18T12:07:50.668Z,95856.00
2018-09-18T12:13:19.857Z,95855.00
2018-09-18T12:18:51.132Z,95853.00
2018-09-18T12:24:20.341Z,95848.00
2018-09-18T12:29:50.685Z,95841.00
2018-09-18T12:35:19.916Z,95834.00
2018-09-18T12:40:49.260Z,95827.00
2018-09-18T12:46:18.446Z,95827.00
2018-09-18T12:51:47.623Z,95821.00
2018-09-18T12:57:16.947Z,95820.00
2018-09-18T13:02:46.098Z,95815.00
2018-09-18T13:08:15.437Z,95815.00
2018-09-18T13:13:44.716Z,95815.00
2018-09-18T13:19:14.039Z,95810.00
2018-09-18T13:24:43.708Z,95816.00
2018-09-18T13:30:13.112Z,95812.00
2018-09-18T13:35:42.542Z,95803.00
2018-09-18T13:41:12.129Z,95804.00
2018-09-18T13:46:41.985Z,95790.00
2018-09-18T13:52:11.784Z,95768.00
2018-09-18T13:57:41.351Z,95760.00
2018-09-18T14:03:10.756Z,95767.00
2018-09-18T14:08:42.564Z,95760.00
2018-09-18T14:14:12.071Z,95758.00
2018-09-18T14:19:41.554Z,95731.00
2018-09-18T14:25:11.112Z,95724.00
2018-09-18T14:30:40.668Z,95702.00
2018-09-18T14:36:10.048Z,95752.00
2018-09-18T14:41:39.958Z,95778.00
2018-09-18T14:47:09.343Z,95775.00
2018-09-18T14:52:39.786Z,95774.00
2018-09-18T14:58:09.107Z,95720.00
2018-09-18T15:03:39.062Z,95768.00
2018-09-18T15:09:10.425Z,95766.00
2018-09-18T15:14:39.827Z,95765.00
2018-09-18T15:20:09.840Z,95767.00
2018-09-18T15:25:39.819Z,95749.00
2018-09-18T15:31:09.428Z,95765.00
2018-09-18T15:36:39.643Z,95767.00
2018-09-18T15:42:10.271Z,95765.00
2018-09-18T15:47:39.966Z,95761.00
2018-09-18T15:53:09.699Z,95764.00
2018-09-18T15:58:39.320Z,95751.00
2018-09-18T16:04:08.891Z,95757.00
2018-09-18T16:09:38.298Z,95766.00
2018-09-18T16:15:09.983Z,95775.00
2018-09-18T16:20:39.929Z,95782.00
2018-09-18T16:26:10.779Z,95779.00
2018-09-18T16:31:40.599Z,95775.00
2018-09-18T16:37:10.394Z,95778.00
2018-09-18T16:42:40.249Z,95794.00
2018-09-18T16:48:13.458Z,95800.00
2018-09-18T16:53:43.004Z,95807.00
2018-09-18T16:59:12.673Z,95804.00
2018-09-18T17:04:42.704Z,95827.00
2018-09-18T17:10:12.279Z,95849.00
2018-09-18T17:15:47.555Z,95849.00
2018-09-18T17:21:17.156Z,95852.00
2018-09-18T17:26:46.617Z,95864.00
2018-09-18T17:32:16.335Z,95855.00
2018-09-18T17:37:46.042Z,95841.00
2018-09-18T17:43:15.613Z,95839.00
2018-09-18T17:48:55.497Z,95846.00
2018-09-18T17:54:25.041Z,95854.00
2018-09-18T17:59:54.305Z,95862.00
2018-09-18T18:05:23.856Z,95873.00
2018-09-18T18:10:53.543Z,95883.00
2018-09-18T18:16:23.982Z,95883.00
2018-09-18T18:21:53.263Z,95889.00
2018-09-18T18:27:22.583Z,95910.00
2018-09-18T18:32:51.953Z,95918.00
2018-09-18T18:38:21.156Z,95940.00
2018-09-18T18:43:50.340Z,95957.00
2018-09-18T18:49:19.573Z,95964.00
2018-09-18T18:54:50.996Z,95972.00
2018-09-18T19:00:20.548Z,95957.00
2018-09-18T19:05:49.878Z,95960.00
2018-09-18T19:11:19.106Z,95950.00
2018-09-18T19:16:48.517Z,95943.00
2018-09-18T19:22:18.270Z,95935.00
2018-09-18T19:27:47.719Z,95933.00
2018-09-18T19:33:17.266Z,95928.00
2018-09-18T19:38:46.511Z,95940.00
2018-09-18T19:44:15.985Z,95987.00
2018-09-18T19:49:45.451Z,95983.00
2018-09-18T19:55:15.315Z,95979.00
2018-09-18T20:00:44.612Z,95990.00
2018-09-18T20:06:14.175Z,95988.00
2018-09-18T20:11:43.606Z,95987.00
2018-09-18T20:17:13.174Z,95985.00
2018-09-18T20:22:42.526Z,95975.00
2018-09-18T20:28:12.266Z,95995.00
2018-09-18T20:33:41.680Z,95982.00
2018-09-18T20:39:12.003Z,95979.00
2018-09-18T20:44:43.440Z,95988.00
2018-09-18T20:50:12.812Z,95988.00
2018-09-18T20:55:42.261Z,95979.00
2018-09-18T21:01:11.790Z,95962.00
2018-09-18T21:06:53.853Z,95970.00
2018-09-18T21:12:24.802Z,95965.00
2018-09-18T21:17:55.724Z,95964.00
2018-09-18T21:23:25.093Z,95980.00
2018-09-18T21:28:54.593Z,95966.00
2018-09-18T21:34:24.983Z,95964.00
2018-09-18T21:39:54.439Z,95970.00
2018-09-18T21:45:23.676Z,95982.00
2018-09-18T21:50:52.884Z,95993.00
2018-09-18T21:56:22.177Z,95994.00
2018-09-18T22:01:51.412Z,95996.00
2018-09-18T22:07:20.698Z,96027.00
2018-09-18T22:12:49.927Z,96023.00
2018-09-18T22:18:19.168Z,96030.00
2018-09-18T22:23:48.410Z,96031.00
2018-09-18T22:29:17.627Z,96034.00
2018-09-18T22:34:47.024Z,96031.00
2018-09-18T22:40:16.363Z,96036.00
2018-09-18T22:45:45.962Z,96036.00
2018-09-18T22:51:15.414Z,96032.00
2018-09-18T22:56:44.922Z,96024.00
2018-09-18T23:02:14.095Z,96019.00
2018-09-18T23:07:43.534Z,95993.00
2018-09-18T23:13:12.832Z,95991.00
2018-09-18T23:18:42.209Z,95987.00
2018-09-18T23:24:11.694Z,96001.00
2018-09-18T23:29:43.920Z,95998.00
2018-09-18T23:35:13.369Z,95992.00
2018-09-18T23:40:42.666Z,96004.00
2018-09-18T23:46:12.143Z,96007.00
2018-09-18T23:51:41.602Z,96005.00
2018-09-18T23:57:10.916Z,96018.00
